sensor_id;sensor_type;location;lat;lon;timestamp;temperature;humidity
38464;DHT22;24243;51.956;5.902;2023-10-19T00:02:13;18.90;49.40
38464;DHT22;24243;51.956;5.902;2023-10-19T00:04:59;18.90;49.40
38464;DHT22;24243;51.956;5.902;2023-10-19T00:07:43;18.90;49.40
38464;DHT22;24243;51.956;5.902;2023-10-19T00:10:28;18.90;49.40
38464;DHT22;24243;51.956;5.902;2023-10-19T00:13:21;18.90;49.50
38464;DHT22;24243;51.956;5.902;2023-10-19T00:16:07;18.90;49.50
38464;DHT22;24243;51.956;5.902;2023-10-19T00:19:13;18.90;49.50
38464;DHT22;24243;51.956;5.902;2023-10-19T00:22:03;18.90;49.50
38464;DHT22;24243;51.956;5.902;2023-10-19T00:24:52;18.90;49.50
38464;DHT22;24243;51.956;5.902;2023-10-19T00:27:36;18.90;49.50
38464;DHT22;24243;51.956;5.902;2023-10-19T00:30:20;18.90;49.50
38464;DHT22;24243;51.956;5.902;2023-10-19T00:33:08;18.90;49.60
38464;DHT22;24243;51.956;5.902;2023-10-19T00:36:00;18.90;49.60
38464;DHT22;24243;51.956;5.902;2023-10-19T00:38:51;18.90;49.60
38464;DHT22;24243;51.956;5.902;2023-10-19T00:41:43;18.90;49.60
38464;DHT22;24243;51.956;5.902;2023-10-19T00:44:29;18.90;49.60
38464;DHT22;24243;51.956;5.902;2023-10-19T00:47:26;18.90;49.60
38464;DHT22;24243;51.956;5.902;2023-10-19T00:50:14;18.90;49.70
38464;DHT22;24243;51.956;5.902;2023-10-19T00:53:05;18.90;49.70
38464;DHT22;24243;51.956;5.902;2023-10-19T00:55:52;18.90;49.70
38464;DHT22;24243;51.956;5.902;2023-10-19T00:58:37;18.90;49.70
38464;DHT22;24243;51.956;5.902;2023-10-19T01:01:24;18.90;49.70
38464;DHT22;24243;51.956;5.902;2023-10-19T01:04:12;18.90;49.80
38464;DHT22;24243;51.956;5.902;2023-10-19T01:07:04;18.90;49.80
38464;DHT22;24243;51.956;5.902;2023-10-19T01:09:57;18.90;49.80
38464;DHT22;24243;51.956;5.902;2023-10-19T01:12:43;18.90;49.80
38464;DHT22;24243;51.956;5.902;2023-10-19T01:15:27;18.80;49.80
38464;DHT22;24243;51.956;5.902;2023-10-19T01:18:11;18.90;49.80
38464;DHT22;24243;51.956;5.902;2023-10-19T01:20:58;18.80;49.80
38464;DHT22;24243;51.956;5.902;2023-10-19T01:23:50;18.90;49.90
38464;DHT22;24243;51.956;5.902;2023-10-19T01:26:34;18.90;49.90
38464;DHT22;24243;51.956;5.902;2023-10-19T01:29:22;18.90;49.90
38464;DHT22;24243;51.956;5.902;2023-10-19T01:32:11;18.90;49.90
38464;DHT22;24243;51.956;5.902;2023-10-19T01:34:56;18.90;49.90
38464;DHT22;24243;51.956;5.902;2023-10-19T01:37:40;18.90;50.00
38464;DHT22;24243;51.956;5.902;2023-10-19T01:40:25;18.90;50.00
38464;DHT22;24243;51.956;5.902;2023-10-19T01:43:14;18.90;50.00
38464;DHT22;24243;51.956;5.902;2023-10-19T01:46:05;18.90;50.00
38464;DHT22;24243;51.956;5.902;2023-10-19T01:48:55;18.90;50.00
38464;DHT22;24243;51.956;5.902;2023-10-19T01:51:39;18.90;50.00
38464;DHT22;24243;51.956;5.902;2023-10-19T01:54:24;18.90;50.00
38464;DHT22;24243;51.956;5.902;2023-10-19T01:57:09;18.90;50.00
38464;DHT22;24243;51.956;5.902;2023-10-19T01:59:53;18.90;50.10
38464;DHT22;24243;51.956;5.902;2023-10-19T02:02:38;18.90;50.10
38464;DHT22;24243;51.956;5.902;2023-10-19T02:05:22;18.90;50.10
38464;DHT22;24243;51.956;5.902;2023-10-19T02:08:06;18.90;50.10
38464;DHT22;24243;51.956;5.902;2023-10-19T02:10:53;18.90;50.10
38464;DHT22;24243;51.956;5.902;2023-10-19T02:13:38;18.90;50.10
38464;DHT22;24243;51.956;5.902;2023-10-19T02:16:23;18.90;50.10
38464;DHT22;24243;51.956;5.902;2023-10-19T02:19:12;18.90;50.20
38464;DHT22;24243;51.956;5.902;2023-10-19T02:21:57;18.90;50.20
38464;DHT22;24243;51.956;5.902;2023-10-19T02:24:41;18.90;50.20
38464;DHT22;24243;51.956;5.902;2023-10-19T02:27:25;18.80;50.10
38464;DHT22;24243;51.956;5.902;2023-10-19T02:30:10;18.80;50.10
38464;DHT22;24243;51.956;5.902;2023-10-19T02:32:55;18.80;50.20
38464;DHT22;24243;51.956;5.902;2023-10-19T02:35:39;18.90;50.30
38464;DHT22;24243;51.956;5.902;2023-10-19T02:38:24;18.90;50.30
38464;DHT22;24243;51.956;5.902;2023-10-19T02:41:10;18.80;50.20
38464;DHT22;24243;51.956;5.902;2023-10-19T02:43:54;18.80;50.20
38464;DHT22;24243;51.956;5.902;2023-10-19T02:46:54;18.90;50.30
38464;DHT22;24243;51.956;5.902;2023-10-19T02:49:49;18.80;50.30
38464;DHT22;24243;51.956;5.902;2023-10-19T02:52:39;18.90;50.30
38464;DHT22;24243;51.956;5.902;2023-10-19T02:55:25;18.80;50.30
38464;DHT22;24243;51.956;5.902;2023-10-19T02:58:10;18.80;50.30
38464;DHT22;24243;51.956;5.902;2023-10-19T03:00:54;18.90;50.40
38464;DHT22;24243;51.956;5.902;2023-10-19T03:03:39;18.90;50.40
38464;DHT22;24243;51.956;5.902;2023-10-19T03:06:23;18.80;50.30
38464;DHT22;24243;51.956;5.902;2023-10-19T03:09:08;18.80;50.30
38464;DHT22;24243;51.956;5.902;2023-10-19T03:12:13;18.90;50.40
38464;DHT22;24243;51.956;5.902;2023-10-19T03:14:58;18.90;50.50
38464;DHT22;24243;51.956;5.902;2023-10-19T03:17:44;18.80;50.40
38464;DHT22;24243;51.956;5.902;2023-10-19T03:20:29;18.90;50.50
38464;DHT22;24243;51.956;5.902;2023-10-19T03:23:13;18.90;50.50
38464;DHT22;24243;51.956;5.902;2023-10-19T03:25:58;18.90;50.50
38464;DHT22;24243;51.956;5.902;2023-10-19T03:29:01;18.90;50.50
38464;DHT22;24243;51.956;5.902;2023-10-19T03:31:47;18.90;50.50
38464;DHT22;24243;51.956;5.902;2023-10-19T03:34:31;18.90;50.60
38464;DHT22;24243;51.956;5.902;2023-10-19T03:37:16;18.90;50.60
38464;DHT22;24243;51.956;5.902;2023-10-19T03:40:03;18.80;50.50
38464;DHT22;24243;51.956;5.902;2023-10-19T03:42:51;18.90;50.60
38464;DHT22;24243;51.956;5.902;2023-10-19T03:45:38;18.90;50.60
38464;DHT22;24243;51.956;5.902;2023-10-19T03:48:28;18.90;50.60
38464;DHT22;24243;51.956;5.902;2023-10-19T03:51:18;18.90;50.70
38464;DHT22;24243;51.956;5.902;2023-10-19T03:54:03;18.90;50.70
38464;DHT22;24243;51.956;5.902;2023-10-19T03:56:51;18.90;50.70
38464;DHT22;24243;51.956;5.902;2023-10-19T03:59:36;18.90;50.80
38464;DHT22;24243;51.956;5.902;2023-10-19T04:02:22;18.90;50.70
38464;DHT22;24243;51.956;5.902;2023-10-19T04:05:08;18.80;50.70
38464;DHT22;24243;51.956;5.902;2023-10-19T04:07:54;18.90;50.80
38464;DHT22;24243;51.956;5.902;2023-10-19T04:10:56;18.90;50.80
38464;DHT22;24243;51.956;5.902;2023-10-19T04:14:01;18.90;50.80
38464;DHT22;24243;51.956;5.902;2023-10-19T04:16:47;18.90;50.80
38464;DHT22;24243;51.956;5.902;2023-10-19T04:19:33;18.90;50.80
38464;DHT22;24243;51.956;5.902;2023-10-19T04:22:17;18.90;50.80
38464;DHT22;24243;51.956;5.902;2023-10-19T04:25:07;18.90;50.80
38464;DHT22;24243;51.956;5.902;2023-10-19T04:27:52;18.90;50.90
38464;DHT22;24243;51.956;5.902;2023-10-19T04:30:36;18.90;50.90
38464;DHT22;24243;51.956;5.902;2023-10-19T04:33:21;18.90;50.90
38464;DHT22;24243;51.956;5.902;2023-10-19T04:36:06;18.80;50.90
38464;DHT22;24243;51.956;5.902;2023-10-19T04:38:55;18.90;50.90
38464;DHT22;24243;51.956;5.902;2023-10-19T04:41:40;18.90;50.90
38464;DHT22;24243;51.956;5.902;2023-10-19T04:44:24;18.90;51.00
38464;DHT22;24243;51.956;5.902;2023-10-19T04:47:08;18.90;51.00
38464;DHT22;24243;51.956;5.902;2023-10-19T04:49:52;18.90;51.00
38464;DHT22;24243;51.956;5.902;2023-10-19T04:52:37;18.90;51.00
38464;DHT22;24243;51.956;5.902;2023-10-19T04:55:21;18.90;51.00
38464;DHT22;24243;51.956;5.902;2023-10-19T04:58:06;18.80;51.00
38464;DHT22;24243;51.956;5.902;2023-10-19T05:00:50;18.90;51.00
38464;DHT22;24243;51.956;5.902;2023-10-19T05:03:34;18.90;51.10
38464;DHT22;24243;51.956;5.902;2023-10-19T05:06:19;18.90;51.10
38464;DHT22;24243;51.956;5.902;2023-10-19T05:09:03;18.90;51.10
38464;DHT22;24243;51.956;5.902;2023-10-19T05:11:47;18.90;51.10
38464;DHT22;24243;51.956;5.902;2023-10-19T05:14:32;18.90;51.10
38464;DHT22;24243;51.956;5.902;2023-10-19T05:17:16;18.90;51.10
38464;DHT22;24243;51.956;5.902;2023-10-19T05:20:05;18.90;51.20
38464;DHT22;24243;51.956;5.902;2023-10-19T05:22:49;18.90;51.20
38464;DHT22;24243;51.956;5.902;2023-10-19T05:25:34;18.90;51.20
38464;DHT22;24243;51.956;5.902;2023-10-19T05:28:18;18.90;51.20
38464;DHT22;24243;51.956;5.902;2023-10-19T05:31:03;18.90;51.20
38464;DHT22;24243;51.956;5.902;2023-10-19T05:33:48;18.90;51.20
38464;DHT22;24243;51.956;5.902;2023-10-19T05:36:32;18.90;51.20
38464;DHT22;24243;51.956;5.902;2023-10-19T05:39:17;18.90;51.20
38464;DHT22;24243;51.956;5.902;2023-10-19T05:42:01;18.90;51.30
38464;DHT22;24243;51.956;5.902;2023-10-19T05:44:45;18.90;51.30
38464;DHT22;24243;51.956;5.902;2023-10-19T05:47:29;18.90;51.30
38464;DHT22;24243;51.956;5.902;2023-10-19T05:50:14;18.90;51.30
38464;DHT22;24243;51.956;5.902;2023-10-19T05:52:58;18.90;51.30
38464;DHT22;24243;51.956;5.902;2023-10-19T05:55:42;18.90;51.30
38464;DHT22;24243;51.956;5.902;2023-10-19T05:58:27;18.90;51.30
38464;DHT22;24243;51.956;5.902;2023-10-19T06:01:11;18.90;51.40
38464;DHT22;24243;51.956;5.902;2023-10-19T06:03:55;18.90;51.40
38464;DHT22;24243;51.956;5.902;2023-10-19T06:06:40;18.90;51.40
38464;DHT22;24243;51.956;5.902;2023-10-19T06:09:24;18.90;51.40
38464;DHT22;24243;51.956;5.902;2023-10-19T06:12:13;18.90;51.50
38464;DHT22;24243;51.956;5.902;2023-10-19T06:14:57;18.90;51.50
38464;DHT22;24243;51.956;5.902;2023-10-19T06:17:41;18.90;51.50
38464;DHT22;24243;51.956;5.902;2023-10-19T06:20:26;18.90;51.50
38464;DHT22;24243;51.956;5.902;2023-10-19T06:23:11;18.90;51.50
38464;DHT22;24243;51.956;5.902;2023-10-19T06:25:55;19.00;51.60
38464;DHT22;24243;51.956;5.902;2023-10-19T06:28:40;19.00;51.60
38464;DHT22;24243;51.956;5.902;2023-10-19T06:31:24;19.00;51.60
38464;DHT22;24243;51.956;5.902;2023-10-19T06:34:10;19.00;51.60
38464;DHT22;24243;51.956;5.902;2023-10-19T06:36:54;19.00;51.60
38464;DHT22;24243;51.956;5.902;2023-10-19T06:39:39;19.00;51.60
38464;DHT22;24243;51.956;5.902;2023-10-19T06:42:26;19.00;51.70
38464;DHT22;24243;51.956;5.902;2023-10-19T06:45:10;19.00;51.70
38464;DHT22;24243;51.956;5.902;2023-10-19T06:47:57;19.00;51.70
38464;DHT22;24243;51.956;5.902;2023-10-19T06:50:44;19.00;51.70
38464;DHT22;24243;51.956;5.902;2023-10-19T06:53:29;19.00;51.70
38464;DHT22;24243;51.956;5.902;2023-10-19T06:56:13;19.00;51.70
38464;DHT22;24243;51.956;5.902;2023-10-19T06:58:59;19.00;51.80
38464;DHT22;24243;51.956;5.902;2023-10-19T07:01:44;19.00;51.80
38464;DHT22;24243;51.956;5.902;2023-10-19T07:04:28;19.00;51.80
38464;DHT22;24243;51.956;5.902;2023-10-19T07:07:13;19.00;51.80
38464;DHT22;24243;51.956;5.902;2023-10-19T07:09:58;19.00;51.80
38464;DHT22;24243;51.956;5.902;2023-10-19T07:12:43;19.00;51.90
38464;DHT22;24243;51.956;5.902;2023-10-19T07:15:28;19.00;51.90
38464;DHT22;24243;51.956;5.902;2023-10-19T07:18:14;19.00;51.90
38464;DHT22;24243;51.956;5.902;2023-10-19T07:20:58;19.00;52.00
38464;DHT22;24243;51.956;5.902;2023-10-19T07:23:49;19.10;52.00
38464;DHT22;24243;51.956;5.902;2023-10-19T07:26:36;19.10;52.00
38464;DHT22;24243;51.956;5.902;2023-10-19T07:29:27;19.00;52.00
38464;DHT22;24243;51.956;5.902;2023-10-19T07:32:11;19.10;52.10
38464;DHT22;24243;51.956;5.902;2023-10-19T07:34:57;19.10;52.10
38464;DHT22;24243;51.956;5.902;2023-10-19T07:37:42;19.10;52.10
38464;DHT22;24243;51.956;5.902;2023-10-19T07:40:27;19.10;52.10
38464;DHT22;24243;51.956;5.902;2023-10-19T07:43:11;19.10;52.10
38464;DHT22;24243;51.956;5.902;2023-10-19T07:45:56;19.10;52.20
38464;DHT22;24243;51.956;5.902;2023-10-19T07:48:40;19.10;52.20
38464;DHT22;24243;51.956;5.902;2023-10-19T07:51:24;19.10;52.20
38464;DHT22;24243;51.956;5.902;2023-10-19T07:54:09;19.10;52.20
38464;DHT22;24243;51.956;5.902;2023-10-19T07:56:54;19.10;52.30
38464;DHT22;24243;51.956;5.902;2023-10-19T07:59:38;19.10;52.30
38464;DHT22;24243;51.956;5.902;2023-10-19T08:02:22;19.10;52.30
38464;DHT22;24243;51.956;5.902;2023-10-19T08:05:08;19.10;52.30
38464;DHT22;24243;51.956;5.902;2023-10-19T08:07:52;19.10;52.30
38464;DHT22;24243;51.956;5.902;2023-10-19T08:10:36;19.10;52.30
38464;DHT22;24243;51.956;5.902;2023-10-19T08:13:21;19.10;52.30
38464;DHT22;24243;51.956;5.902;2023-10-19T08:16:05;19.10;52.40
38464;DHT22;24243;51.956;5.902;2023-10-19T08:18:51;19.10;52.40
38464;DHT22;24243;51.956;5.902;2023-10-19T08:21:37;19.10;52.40
38464;DHT22;24243;51.956;5.902;2023-10-19T08:24:21;19.10;52.40
38464;DHT22;24243;51.956;5.902;2023-10-19T08:27:07;19.10;52.40
38464;DHT22;24243;51.956;5.902;2023-10-19T08:29:51;19.10;52.50
38464;DHT22;24243;51.956;5.902;2023-10-19T08:32:36;19.10;52.50
38464;DHT22;24243;51.956;5.902;2023-10-19T08:35:20;19.10;52.50
38464;DHT22;24243;51.956;5.902;2023-10-19T08:38:08;19.10;52.50
38464;DHT22;24243;51.956;5.902;2023-10-19T08:40:55;19.10;52.60
38464;DHT22;24243;51.956;5.902;2023-10-19T08:43:39;19.10;52.60
38464;DHT22;24243;51.956;5.902;2023-10-19T08:46:23;19.10;52.60
38464;DHT22;24243;51.956;5.902;2023-10-19T08:49:09;19.10;52.70
38464;DHT22;24243;51.956;5.902;2023-10-19T08:51:54;19.10;52.70
38464;DHT22;24243;51.956;5.902;2023-10-19T08:54:40;19.10;52.70
38464;DHT22;24243;51.956;5.902;2023-10-19T08:57:24;19.10;52.70
38464;DHT22;24243;51.956;5.902;2023-10-19T09:00:08;19.10;52.70
38464;DHT22;24243;51.956;5.902;2023-10-19T09:02:53;19.10;52.70
38464;DHT22;24243;51.956;5.902;2023-10-19T09:05:38;19.10;52.80
38464;DHT22;24243;51.956;5.902;2023-10-19T09:08:24;19.10;52.80
38464;DHT22;24243;51.956;5.902;2023-10-19T09:11:09;19.10;52.80
38464;DHT22;24243;51.956;5.902;2023-10-19T09:13:55;19.10;52.80
38464;DHT22;24243;51.956;5.902;2023-10-19T09:16:53;19.10;52.80
38464;DHT22;24243;51.956;5.902;2023-10-19T09:19:41;19.10;52.80
38464;DHT22;24243;51.956;5.902;2023-10-19T09:22:26;19.10;52.80
38464;DHT22;24243;51.956;5.902;2023-10-19T09:25:21;19.10;52.80
38464;DHT22;24243;51.956;5.902;2023-10-19T09:28:06;19.10;52.80
38464;DHT22;24243;51.956;5.902;2023-10-19T09:30:54;19.10;52.80
38464;DHT22;24243;51.956;5.902;2023-10-19T09:33:43;19.10;52.90
38464;DHT22;24243;51.956;5.902;2023-10-19T09:36:31;19.10;52.90
38464;DHT22;24243;51.956;5.902;2023-10-19T09:39:15;19.10;52.90
38464;DHT22;24243;51.956;5.902;2023-10-19T09:42:09;19.10;52.90
38464;DHT22;24243;51.956;5.902;2023-10-19T09:45:00;19.20;53.00
38464;DHT22;24243;51.956;5.902;2023-10-19T09:47:50;19.20;53.00
38464;DHT22;24243;51.956;5.902;2023-10-19T09:50:34;19.20;53.00
38464;DHT22;24243;51.956;5.902;2023-10-19T09:53:19;19.20;53.10
38464;DHT22;24243;51.956;5.902;2023-10-19T09:56:05;19.30;53.10
38464;DHT22;24243;51.956;5.902;2023-10-19T09:59:02;19.20;53.20
38464;DHT22;24243;51.956;5.902;2023-10-19T10:05:03;19.30;53.30
38464;DHT22;24243;51.956;5.902;2023-10-19T10:07:53;19.30;53.30
38464;DHT22;24243;51.956;5.902;2023-10-19T10:10:52;19.40;53.70
38464;DHT22;24243;51.956;5.902;2023-10-19T10:13:36;19.40;53.70
38464;DHT22;24243;51.956;5.902;2023-10-19T10:16:22;19.40;53.70
38464;DHT22;24243;51.956;5.902;2023-10-19T10:19:06;19.40;53.70
38464;DHT22;24243;51.956;5.902;2023-10-19T10:22:03;19.50;53.80
38464;DHT22;24243;51.956;5.902;2023-10-19T10:24:54;19.50;53.70
38464;DHT22;24243;51.956;5.902;2023-10-19T10:27:50;19.50;53.80
38464;DHT22;24243;51.956;5.902;2023-10-19T10:30:35;19.60;53.80
38464;DHT22;24243;51.956;5.902;2023-10-19T10:33:38;19.60;53.80
38464;DHT22;24243;51.956;5.902;2023-10-19T10:36:23;19.60;53.80
38464;DHT22;24243;51.956;5.902;2023-10-19T10:39:07;19.60;53.80
38464;DHT22;24243;51.956;5.902;2023-10-19T10:41:59;19.60;53.80
38464;DHT22;24243;51.956;5.902;2023-10-19T10:44:47;19.70;53.90
38464;DHT22;24243;51.956;5.902;2023-10-19T10:47:31;19.60;53.90
38464;DHT22;24243;51.956;5.902;2023-10-19T10:50:19;19.70;54.00
38464;DHT22;24243;51.956;5.902;2023-10-19T10:53:04;19.70;54.10
38464;DHT22;24243;51.956;5.902;2023-10-19T10:55:48;19.70;54.10
38464;DHT22;24243;51.956;5.902;2023-10-19T10:58:32;19.70;54.10
38464;DHT22;24243;51.956;5.902;2023-10-19T11:01:32;19.80;54.20
38464;DHT22;24243;51.956;5.902;2023-10-19T11:04:19;19.70;54.20
38464;DHT22;24243;51.956;5.902;2023-10-19T11:07:04;19.80;54.30
38464;DHT22;24243;51.956;5.902;2023-10-19T11:09:48;19.80;54.30
38464;DHT22;24243;51.956;5.902;2023-10-19T11:12:33;19.80;54.40
38464;DHT22;24243;51.956;5.902;2023-10-19T11:15:20;19.80;54.40
38464;DHT22;24243;51.956;5.902;2023-10-19T11:18:05;19.80;54.40
38464;DHT22;24243;51.956;5.902;2023-10-19T11:20:53;19.90;54.50
38464;DHT22;24243;51.956;5.902;2023-10-19T11:26:23;19.90;54.60
38464;DHT22;24243;51.956;5.902;2023-10-19T11:29:16;20.00;54.70
38464;DHT22;24243;51.956;5.902;2023-10-19T11:32:00;20.00;54.70
38464;DHT22;24243;51.956;5.902;2023-10-19T11:34:46;20.00;54.80
38464;DHT22;24243;51.956;5.902;2023-10-19T11:37:44;20.00;56.30
38464;DHT22;24243;51.956;5.902;2023-10-19T11:40:28;20.00;57.80
38464;DHT22;24243;51.956;5.902;2023-10-19T11:43:12;20.10;57.60
38464;DHT22;24243;51.956;5.902;2023-10-19T11:45:57;20.10;58.30
38464;DHT22;24243;51.956;5.902;2023-10-19T11:48:41;20.10;58.80
38464;DHT22;24243;51.956;5.902;2023-10-19T11:51:26;20.20;58.50
38464;DHT22;24243;51.956;5.902;2023-10-19T11:54:10;20.20;58.20
38464;DHT22;24243;51.956;5.902;2023-10-19T11:56:56;20.20;58.00
38464;DHT22;24243;51.956;5.902;2023-10-19T11:59:41;20.30;57.80
38464;DHT22;24243;51.956;5.902;2023-10-19T12:02:25;20.30;57.70
38464;DHT22;24243;51.956;5.902;2023-10-19T12:05:10;20.30;57.50
38464;DHT22;24243;51.956;5.902;2023-10-19T12:07:54;20.30;57.40
38464;DHT22;24243;51.956;5.902;2023-10-19T12:10:40;20.40;57.40
38464;DHT22;24243;51.956;5.902;2023-10-19T12:13:24;20.30;57.30
38464;DHT22;24243;51.956;5.902;2023-10-19T12:16:09;20.30;57.20
38464;DHT22;24243;51.956;5.902;2023-10-19T12:18:59;20.40;57.20
38464;DHT22;24243;51.956;5.902;2023-10-19T12:21:43;20.40;57.20
38464;DHT22;24243;51.956;5.902;2023-10-19T12:24:28;20.40;57.20
38464;DHT22;24243;51.956;5.902;2023-10-19T12:27:13;20.40;57.20
38464;DHT22;24243;51.956;5.902;2023-10-19T12:29:57;20.40;57.20
38464;DHT22;24243;51.956;5.902;2023-10-19T12:32:42;20.40;57.20
38464;DHT22;24243;51.956;5.902;2023-10-19T12:35:27;20.40;57.20
38464;DHT22;24243;51.956;5.902;2023-10-19T12:38:28;20.40;57.20
38464;DHT22;24243;51.956;5.902;2023-10-19T12:41:12;20.40;57.20
38464;DHT22;24243;51.956;5.902;2023-10-19T12:43:58;20.40;57.20
38464;DHT22;24243;51.956;5.902;2023-10-19T12:46:44;20.40;57.20
38464;DHT22;24243;51.956;5.902;2023-10-19T12:49:28;20.40;57.20
38464;DHT22;24243;51.956;5.902;2023-10-19T12:52:13;20.40;57.30
38464;DHT22;24243;51.956;5.902;2023-10-19T12:54:58;20.40;57.30
38464;DHT22;24243;51.956;5.902;2023-10-19T12:57:43;20.40;57.30
38464;DHT22;24243;51.956;5.902;2023-10-19T13:00:27;20.40;57.30
38464;DHT22;24243;51.956;5.902;2023-10-19T13:03:13;20.40;57.30
38464;DHT22;24243;51.956;5.902;2023-10-19T13:05:57;20.40;57.40
38464;DHT22;24243;51.956;5.902;2023-10-19T13:08:42;20.40;57.40
38464;DHT22;24243;51.956;5.902;2023-10-19T13:11:26;20.40;57.40
38464;DHT22;24243;51.956;5.902;2023-10-19T13:14:11;20.40;57.40
38464;DHT22;24243;51.956;5.902;2023-10-19T13:16:55;20.40;57.40
38464;DHT22;24243;51.956;5.902;2023-10-19T13:19:40;20.40;57.50
38464;DHT22;24243;51.956;5.902;2023-10-19T13:22:24;20.30;57.40
38464;DHT22;24243;51.956;5.902;2023-10-19T13:25:09;20.40;57.50
38464;DHT22;24243;51.956;5.902;2023-10-19T13:27:56;20.30;57.50
38464;DHT22;24243;51.956;5.902;2023-10-19T13:30:50;20.40;57.50
38464;DHT22;24243;51.956;5.902;2023-10-19T13:33:35;20.40;57.50
38464;DHT22;24243;51.956;5.902;2023-10-19T13:36:19;20.40;57.50
38464;DHT22;24243;51.956;5.902;2023-10-19T13:39:03;20.40;57.50
38464;DHT22;24243;51.956;5.902;2023-10-19T13:41:47;20.30;57.50
38464;DHT22;24243;51.956;5.902;2023-10-19T13:44:32;20.30;57.50
38464;DHT22;24243;51.956;5.902;2023-10-19T13:47:16;20.30;57.50
38464;DHT22;24243;51.956;5.902;2023-10-19T13:50:00;20.30;57.50
38464;DHT22;24243;51.956;5.902;2023-10-19T13:52:45;20.30;57.50
38464;DHT22;24243;51.956;5.902;2023-10-19T13:55:29;20.30;57.50
38464;DHT22;24243;51.956;5.902;2023-10-19T13:58:13;20.30;57.50
38464;DHT22;24243;51.956;5.902;2023-10-19T14:00:57;20.30;57.50
38464;DHT22;24243;51.956;5.902;2023-10-19T14:03:42;20.30;57.50
38464;DHT22;24243;51.956;5.902;2023-10-19T14:06:26;20.30;57.50
38464;DHT22;24243;51.956;5.902;2023-10-19T14:09:10;20.30;57.60
38464;DHT22;24243;51.956;5.902;2023-10-19T14:11:56;20.30;57.60
38464;DHT22;24243;51.956;5.902;2023-10-19T14:14:41;20.30;57.60
38464;DHT22;24243;51.956;5.902;2023-10-19T14:17:25;20.30;57.60
38464;DHT22;24243;51.956;5.902;2023-10-19T14:20:09;20.30;57.60
38464;DHT22;24243;51.956;5.902;2023-10-19T14:22:57;20.30;57.60
38464;DHT22;24243;51.956;5.902;2023-10-19T14:25:41;20.30;57.60
38464;DHT22;24243;51.956;5.902;2023-10-19T14:28:27;20.30;57.70
38464;DHT22;24243;51.956;5.902;2023-10-19T14:31:11;20.30;57.60
38464;DHT22;24243;51.956;5.902;2023-10-19T14:33:56;20.30;57.70
38464;DHT22;24243;51.956;5.902;2023-10-19T14:36:42;20.30;57.70
38464;DHT22;24243;51.956;5.902;2023-10-19T14:39:26;20.30;57.70
38464;DHT22;24243;51.956;5.902;2023-10-19T14:42:11;20.30;57.70
38464;DHT22;24243;51.956;5.902;2023-10-19T14:44:55;20.30;57.70
38464;DHT22;24243;51.956;5.902;2023-10-19T14:47:40;20.30;57.70
38464;DHT22;24243;51.956;5.902;2023-10-19T14:50:25;20.30;57.70
38464;DHT22;24243;51.956;5.902;2023-10-19T14:53:09;20.30;57.70
38464;DHT22;24243;51.956;5.902;2023-10-19T14:55:56;20.20;57.60
38464;DHT22;24243;51.956;5.902;2023-10-19T14:58:41;20.20;57.70
38464;DHT22;24243;51.956;5.902;2023-10-19T15:01:25;20.30;57.70
38464;DHT22;24243;51.956;5.902;2023-10-19T15:04:09;20.20;57.70
38464;DHT22;24243;51.956;5.902;2023-10-19T15:06:54;20.30;57.70
38464;DHT22;24243;51.956;5.902;2023-10-19T15:09:38;20.20;57.70
38464;DHT22;24243;51.956;5.902;2023-10-19T15:12:22;20.20;57.70
38464;DHT22;24243;51.956;5.902;2023-10-19T15:15:08;20.20;57.70
38464;DHT22;24243;51.956;5.902;2023-10-19T15:17:55;20.20;57.70
38464;DHT22;24243;51.956;5.902;2023-10-19T15:20:40;20.20;57.70
38464;DHT22;24243;51.956;5.902;2023-10-19T15:23:25;20.20;57.70
38464;DHT22;24243;51.956;5.902;2023-10-19T15:26:15;20.20;57.70
38464;DHT22;24243;51.956;5.902;2023-10-19T15:29:00;20.20;57.70
38464;DHT22;24243;51.956;5.902;2023-10-19T15:31:44;20.20;57.70
38464;DHT22;24243;51.956;5.902;2023-10-19T15:34:28;20.20;57.70
38464;DHT22;24243;51.956;5.902;2023-10-19T15:37:18;20.20;57.70
38464;DHT22;24243;51.956;5.902;2023-10-19T15:40:02;20.20;57.70
38464;DHT22;24243;51.956;5.902;2023-10-19T15:42:48;20.20;57.70
38464;DHT22;24243;51.956;5.902;2023-10-19T15:45:32;20.20;57.70
38464;DHT22;24243;51.956;5.902;2023-10-19T15:48:21;20.20;57.70
38464;DHT22;24243;51.956;5.902;2023-10-19T15:51:06;20.20;57.70
38464;DHT22;24243;51.956;5.902;2023-10-19T15:53:50;20.20;57.70
38464;DHT22;24243;51.956;5.902;2023-10-19T15:56:35;20.20;57.80
38464;DHT22;24243;51.956;5.902;2023-10-19T15:59:19;20.20;57.80
38464;DHT22;24243;51.956;5.902;2023-10-19T16:02:03;20.20;57.80
38464;DHT22;24243;51.956;5.902;2023-10-19T16:04:47;20.20;57.80
38464;DHT22;24243;51.956;5.902;2023-10-19T16:07:31;20.20;57.80
38464;DHT22;24243;51.956;5.902;2023-10-19T16:10:16;20.20;57.90
38464;DHT22;24243;51.956;5.902;2023-10-19T16:13:00;20.20;57.90
38464;DHT22;24243;51.956;5.902;2023-10-19T16:15:44;20.20;57.90
38464;DHT22;24243;51.956;5.902;2023-10-19T16:18:28;20.20;58.00
38464;DHT22;24243;51.956;5.902;2023-10-19T16:21:13;20.20;58.00
38464;DHT22;24243;51.956;5.902;2023-10-19T16:23:57;20.30;58.00
38464;DHT22;24243;51.956;5.902;2023-10-19T16:26:42;20.20;58.00
38464;DHT22;24243;51.956;5.902;2023-10-19T16:29:26;20.20;58.00
38464;DHT22;24243;51.956;5.902;2023-10-19T16:32:10;20.30;58.10
38464;DHT22;24243;51.956;5.902;2023-10-19T16:34:54;20.20;58.00
38464;DHT22;24243;51.956;5.902;2023-10-19T16:37:38;20.30;58.30
38464;DHT22;24243;51.956;5.902;2023-10-19T16:40:23;20.30;58.10
38464;DHT22;24243;51.956;5.902;2023-10-19T16:43:08;20.30;58.10
38464;DHT22;24243;51.956;5.902;2023-10-19T16:45:53;20.20;58.10
38464;DHT22;24243;51.956;5.902;2023-10-19T16:48:39;20.30;58.10
38464;DHT22;24243;51.956;5.902;2023-10-19T16:51:23;20.20;58.10
38464;DHT22;24243;51.956;5.902;2023-10-19T16:54:07;20.20;58.10
38464;DHT22;24243;51.956;5.902;2023-10-19T16:56:52;20.20;58.10
38464;DHT22;24243;51.956;5.902;2023-10-19T16:59:36;20.20;58.10
38464;DHT22;24243;51.956;5.902;2023-10-19T17:02:20;20.20;58.10
38464;DHT22;24243;51.956;5.902;2023-10-19T17:05:05;20.20;58.10
38464;DHT22;24243;51.956;5.902;2023-10-19T17:07:50;20.20;58.10
38464;DHT22;24243;51.956;5.902;2023-10-19T17:10:34;20.20;58.20
38464;DHT22;24243;51.956;5.902;2023-10-19T17:13:19;20.20;58.20
38464;DHT22;24243;51.956;5.902;2023-10-19T17:16:04;20.20;58.20
38464;DHT22;24243;51.956;5.902;2023-10-19T17:18:49;20.20;58.20
38464;DHT22;24243;51.956;5.902;2023-10-19T17:21:34;20.20;58.20
38464;DHT22;24243;51.956;5.902;2023-10-19T17:24:18;20.20;58.20
38464;DHT22;24243;51.956;5.902;2023-10-19T17:27:02;20.20;58.20
38464;DHT22;24243;51.956;5.902;2023-10-19T17:29:49;20.20;58.20
38464;DHT22;24243;51.956;5.902;2023-10-19T17:32:33;20.20;58.20
38464;DHT22;24243;51.956;5.902;2023-10-19T17:35:18;20.20;58.20